JZR104 OBBI-OKKK
Flight info
| Callsign | JZR104 |
|---|---|
| Flight time | 0h 46m |
| Altitude | 24000 |
| Route | BHR345/30R BHR A453 DEBTI |
| Aircraft | A320/M-SDE3FGHIRWY/LB1 |
Departure
| Time | 2026-05-04 17:27 |
|---|---|
| Airport | Bahrain International Airport (OBBI) |
Arrival
| Time | 2026-05-04 18:13 |
|---|---|
| Airport | Kuwait International Airport (OKKK) |
| Time | Latitude | Longitude | Altitude | Speed | Heading |
|---|---|---|---|---|---|
| 2026-05-04 17:01 | 26.27020 | 50.62718 | 14 ft | 0 kts | 206° |
| 2026-05-04 17:10 | 26.27031 | 50.62724 | 14 ft | 3 kts | 208° |
| 2026-05-04 17:11 | 26.27049 | 50.62735 | 4 ft | 3 kts | 216° |
| 2026-05-04 17:11 | 26.27065 | 50.62749 | 30 ft | 3 kts | 224° |
| 2026-05-04 17:11 | 26.27087 | 50.62784 | 19 ft | 3 kts | 265° |
| 2026-05-04 17:12 | 26.27085 | 50.62800 | 18 ft | 1 kts | 303° |
| 2026-05-04 17:12 | 26.27082 | 50.62805 | 17 ft | 0 kts | 303° |
| 2026-05-04 17:17 | 26.27089 | 50.62794 | 18 ft | 5 kts | 303° |
| 2026-05-04 17:17 | 26.27163 | 50.62665 | 15 ft | 8 kts | 303° |
| 2026-05-04 17:18 | 26.27223 | 50.62644 | 15 ft | 11 kts | 19° |
| 2026-05-04 17:18 | 26.27201 | 50.62826 | 15 ft | 17 kts | 122° |
| 2026-05-04 17:19 | 26.27067 | 50.63040 | 15 ft | 17 kts | 123° |
| 2026-05-04 17:19 | 26.26913 | 50.63307 | 13 ft | 18 kts | 122° |
| 2026-05-04 17:20 | 26.26762 | 50.63572 | 14 ft | 16 kts | 123° |
| 2026-05-04 17:20 | 26.26618 | 50.63816 | 15 ft | 22 kts | 123° |
| 2026-05-04 17:20 | 26.26541 | 50.63948 | 15 ft | 21 kts | 122° |
| 2026-05-04 17:21 | 26.26403 | 50.64188 | 14 ft | 7 kts | 122° |
| 2026-05-04 17:21 | 26.26375 | 50.64236 | 13 ft | 5 kts | 123° |
| 2026-05-04 17:22 | 26.26323 | 50.64326 | 12 ft | 21 kts | 123° |
| 2026-05-04 17:22 | 26.26256 | 50.64445 | 12 ft | 22 kts | 122° |
| 2026-05-04 17:23 | 26.26049 | 50.64802 | 14 ft | 15 kts | 123° |
| 2026-05-04 17:23 | 26.26024 | 50.64897 | 15 ft | 12 kts | 83° |
| 2026-05-04 17:23 | 26.26069 | 50.64981 | 17 ft | 9 kts | 27° |
| 2026-05-04 17:24 | 26.26123 | 50.65010 | 16 ft | 9 kts | 21° |
| 2026-05-04 17:24 | 26.26163 | 50.64960 | 17 ft | 0 kts | 304° |
| 2026-05-04 17:26 | 26.26176 | 50.64938 | 16 ft | 7 kts | 304° |
| 2026-05-04 17:26 | 26.27174 | 50.63206 | 13 ft | 170 kts | 303° |
| 2026-05-04 17:27 | 26.28393 | 50.61032 | 927 ft | 185 kts | 303° |
| 2026-05-04 17:27 | 26.30284 | 50.58966 | 1599 ft | 213 kts | 343° |
| 2026-05-04 17:28 | 26.33331 | 50.58080 | 2327 ft | 250 kts | 348° |
| 2026-05-04 17:29 | 26.37944 | 50.56906 | 4370 ft | 259 kts | 347° |
| 2026-05-04 17:29 | 26.43875 | 50.55366 | 6846 ft | 268 kts | 345° |
| 2026-05-04 17:30 | 26.48782 | 50.54092 | 8838 ft | 275 kts | 344° |
| 2026-05-04 17:31 | 26.52557 | 50.53114 | 10256 ft | 284 kts | 344° |
| 2026-05-04 17:31 | 26.59014 | 50.51430 | 10753 ft | 349 kts | 345° |
| 2026-05-04 17:32 | 26.63857 | 50.50187 | 11785 ft | 362 kts | 346° |
| 2026-05-04 17:33 | 26.71077 | 50.47423 | 13586 ft | 372 kts | 326° |
| 2026-05-04 17:33 | 26.73074 | 50.45616 | 14107 ft | 375 kts | 316° |
| 2026-05-04 17:34 | 26.77831 | 50.40570 | 15426 ft | 385 kts | 316° |
| 2026-05-04 17:35 | 26.82112 | 50.36042 | 16629 ft | 392 kts | 315° |
| 2026-05-04 17:35 | 26.86085 | 50.31831 | 17722 ft | 399 kts | 315° |
| 2026-05-04 17:35 | 26.88127 | 50.29665 | 18250 ft | 403 kts | 315° |
| 2026-05-04 17:36 | 26.90184 | 50.27483 | 18733 ft | 406 kts | 315° |
| 2026-05-04 17:36 | 26.92195 | 50.25353 | 19235 ft | 407 kts | 315° |
| 2026-05-04 17:36 | 26.94265 | 50.23161 | 19754 ft | 409 kts | 315° |
| 2026-05-04 17:36 | 26.96349 | 50.20950 | 20241 ft | 411 kts | 314° |
| 2026-05-04 17:37 | 26.98433 | 50.18735 | 20694 ft | 413 kts | 314° |
| 2026-05-04 17:37 | 27.00525 | 50.16507 | 21115 ft | 417 kts | 314° |
| 2026-05-04 17:37 | 27.02634 | 50.14257 | 21553 ft | 419 kts | 314° |
| 2026-05-04 17:37 | 27.04718 | 50.11997 | 21994 ft | 420 kts | 311° |
| 2026-05-04 17:38 | 27.06629 | 50.09527 | 22399 ft | 422 kts | 308° |
| 2026-05-04 17:38 | 27.08543 | 50.07009 | 22835 ft | 424 kts | 308° |
| 2026-05-04 17:38 | 27.10464 | 50.04485 | 23261 ft | 425 kts | 308° |
| 2026-05-04 17:38 | 27.12387 | 50.01959 | 23611 ft | 427 kts | 307° |
| 2026-05-04 17:39 | 27.16276 | 49.96842 | 23795 ft | 438 kts | 307° |
| 2026-05-04 17:39 | 27.18276 | 49.94202 | 23821 ft | 446 kts | 308° |
| 2026-05-04 17:39 | 27.20297 | 49.91541 | 23807 ft | 448 kts | 308° |
| 2026-05-04 17:40 | 27.22319 | 49.88879 | 23802 ft | 449 kts | 308° |
| 2026-05-04 17:40 | 27.24350 | 49.86203 | 23806 ft | 449 kts | 308° |
| 2026-05-04 17:40 | 27.26379 | 49.83530 | 23817 ft | 449 kts | 308° |
| 2026-05-04 17:40 | 27.28389 | 49.80883 | 23803 ft | 449 kts | 308° |
| 2026-05-04 17:41 | 27.30451 | 49.78165 | 23805 ft | 449 kts | 308° |
| 2026-05-04 17:41 | 27.32437 | 49.75540 | 23808 ft | 449 kts | 308° |
| 2026-05-04 17:41 | 27.34454 | 49.72864 | 23813 ft | 450 kts | 307° |
| 2026-05-04 17:41 | 27.36484 | 49.70167 | 23795 ft | 451 kts | 307° |
| 2026-05-04 17:42 | 27.38510 | 49.67476 | 23800 ft | 451 kts | 307° |
| 2026-05-04 17:42 | 27.40530 | 49.64796 | 23807 ft | 451 kts | 307° |
| 2026-05-04 17:42 | 27.42552 | 49.62118 | 23801 ft | 451 kts | 307° |
| 2026-05-04 17:42 | 27.44596 | 49.59414 | 23808 ft | 451 kts | 307° |
| 2026-05-04 17:43 | 27.46624 | 49.56722 | 23797 ft | 451 kts | 307° |
| 2026-05-04 17:43 | 27.48760 | 49.54195 | 23794 ft | 454 kts | 315° |
| 2026-05-04 17:43 | 27.51206 | 49.51942 | 23788 ft | 456 kts | 318° |
| 2026-05-04 17:43 | 27.53697 | 49.49713 | 23793 ft | 456 kts | 318° |
| 2026-05-04 17:44 | 27.56136 | 49.47533 | 23793 ft | 456 kts | 318° |
| 2026-05-04 17:44 | 27.58636 | 49.45296 | 23794 ft | 456 kts | 318° |
| 2026-05-04 17:44 | 27.61100 | 49.43086 | 23793 ft | 456 kts | 318° |
| 2026-05-04 17:44 | 27.63618 | 49.40827 | 23789 ft | 457 kts | 318° |
| 2026-05-04 17:45 | 27.66104 | 49.38594 | 23791 ft | 457 kts | 318° |
| 2026-05-04 17:45 | 27.68567 | 49.36382 | 23790 ft | 457 kts | 318° |
| 2026-05-04 17:45 | 27.71057 | 49.34150 | 23784 ft | 457 kts | 318° |
| 2026-05-04 17:45 | 27.73524 | 49.31936 | 23787 ft | 457 kts | 318° |
| 2026-05-04 17:46 | 27.76019 | 49.29693 | 23798 ft | 457 kts | 317° |
| 2026-05-04 17:46 | 27.78465 | 49.27488 | 23792 ft | 457 kts | 317° |
| 2026-05-04 17:46 | 27.80972 | 49.25227 | 23790 ft | 457 kts | 317° |
| 2026-05-04 17:46 | 27.83458 | 49.22985 | 23789 ft | 458 kts | 317° |
| 2026-05-04 17:47 | 27.85946 | 49.20739 | 23781 ft | 458 kts | 317° |
| 2026-05-04 17:47 | 27.88538 | 49.18653 | 23782 ft | 461 kts | 325° |
| 2026-05-04 17:47 | 27.91288 | 49.16840 | 23794 ft | 462 kts | 326° |
| 2026-05-04 17:47 | 27.94074 | 49.15014 | 23786 ft | 463 kts | 326° |
| 2026-05-04 17:48 | 27.96865 | 49.13188 | 23782 ft | 463 kts | 326° |
| 2026-05-04 17:48 | 27.99668 | 49.11354 | 23766 ft | 463 kts | 326° |
| 2026-05-04 17:48 | 28.02458 | 49.09525 | 22931 ft | 464 kts | 326° |
| 2026-05-04 17:48 | 28.05254 | 49.07690 | 22179 ft | 464 kts | 326° |
| 2026-05-04 17:49 | 28.08056 | 49.05850 | 21917 ft | 463 kts | 326° |
| 2026-05-04 17:49 | 28.10841 | 49.04018 | 21761 ft | 461 kts | 326° |
| 2026-05-04 17:49 | 28.13579 | 49.02217 | 21807 ft | 462 kts | 326° |
| 2026-05-04 17:49 | 28.16355 | 49.00387 | 21799 ft | 462 kts | 326° |
| 2026-05-04 17:50 | 28.19150 | 48.98547 | 21802 ft | 462 kts | 326° |
| 2026-05-04 17:50 | 28.21919 | 48.96724 | 21802 ft | 462 kts | 326° |
| 2026-05-04 17:50 | 28.24713 | 48.94882 | 21796 ft | 462 kts | 326° |
| 2026-05-04 17:50 | 28.27491 | 48.93050 | 21812 ft | 462 kts | 326° |
| 2026-05-04 17:51 | 28.30261 | 48.91222 | 21800 ft | 462 kts | 326° |
| 2026-05-04 17:51 | 28.33041 | 48.89382 | 21803 ft | 462 kts | 326° |
| 2026-05-04 17:51 | 28.35825 | 48.87539 | 21803 ft | 462 kts | 326° |
| 2026-05-04 17:51 | 28.38564 | 48.85723 | 21803 ft | 462 kts | 326° |
| 2026-05-04 17:52 | 28.41378 | 48.83857 | 21798 ft | 462 kts | 326° |
| 2026-05-04 17:52 | 28.44118 | 48.82040 | 21799 ft | 462 kts | 326° |
| 2026-05-04 17:52 | 28.46892 | 48.80198 | 21686 ft | 460 kts | 326° |
| 2026-05-04 17:52 | 28.49628 | 48.78380 | 21308 ft | 458 kts | 326° |
| 2026-05-04 17:53 | 28.52364 | 48.76561 | 20860 ft | 454 kts | 326° |
| 2026-05-04 17:53 | 28.55050 | 48.74717 | 20425 ft | 448 kts | 322° |
| 2026-05-04 17:53 | 28.57501 | 48.72518 | 19998 ft | 439 kts | 314° |
| 2026-05-04 17:53 | 28.59543 | 48.70059 | 19497 ft | 431 kts | 306° |
| 2026-05-04 17:54 | 28.61357 | 48.67355 | 18984 ft | 426 kts | 304° |
| 2026-05-04 17:54 | 28.63129 | 48.64685 | 18493 ft | 422 kts | 304° |
| 2026-05-04 17:54 | 28.64899 | 48.62028 | 17991 ft | 419 kts | 305° |
| 2026-05-04 17:54 | 28.66674 | 48.59406 | 17420 ft | 415 kts | 304° |
| 2026-05-04 17:55 | 28.68411 | 48.56803 | 16806 ft | 409 kts | 304° |
| 2026-05-04 17:55 | 28.70129 | 48.54243 | 16120 ft | 404 kts | 304° |
| 2026-05-04 17:55 | 28.71826 | 48.51709 | 15469 ft | 400 kts | 306° |
| 2026-05-04 17:55 | 28.73741 | 48.49413 | 14841 ft | 400 kts | 315° |
| 2026-05-04 17:56 | 28.75968 | 48.47530 | 14232 ft | 401 kts | 324° |
| 2026-05-04 17:56 | 28.78385 | 48.46010 | 13633 ft | 399 kts | 327° |
| 2026-05-04 17:56 | 28.80889 | 48.44595 | 12937 ft | 399 kts | 333° |
| 2026-05-04 17:56 | 28.83429 | 48.43415 | 12236 ft | 396 kts | 334° |
| 2026-05-04 17:57 | 28.86005 | 48.42215 | 11477 ft | 395 kts | 334° |
| 2026-05-04 17:57 | 28.88513 | 48.41022 | 10756 ft | 393 kts | 334° |
| 2026-05-04 17:57 | 28.91005 | 48.39812 | 10262 ft | 385 kts | 334° |
| 2026-05-04 17:57 | 28.93388 | 48.38649 | 10147 ft | 366 kts | 334° |
| 2026-05-04 17:58 | 28.95693 | 48.37528 | 10034 ft | 349 kts | 334° |
| 2026-05-04 17:58 | 28.97890 | 48.36464 | 9912 ft | 334 kts | 334° |
| 2026-05-04 17:58 | 28.99970 | 48.35459 | 9790 ft | 313 kts | 334° |
| 2026-05-04 17:58 | 29.01881 | 48.34541 | 9572 ft | 298 kts | 334° |
| 2026-05-04 17:59 | 29.03763 | 48.33634 | 9300 ft | 292 kts | 334° |
| 2026-05-04 17:59 | 29.05625 | 48.32729 | 8939 ft | 290 kts | 334° |
| 2026-05-04 17:59 | 29.09315 | 48.30905 | 8178 ft | 286 kts | 334° |
| 2026-05-04 18:00 | 29.11109 | 48.30002 | 7793 ft | 285 kts | 334° |
| 2026-05-04 18:00 | 29.12878 | 48.29101 | 7558 ft | 277 kts | 333° |
| 2026-05-04 18:00 | 29.14557 | 48.27995 | 7283 ft | 270 kts | 325° |
| 2026-05-04 18:00 | 29.16079 | 48.26823 | 6946 ft | 268 kts | 324° |
| 2026-05-04 18:01 | 29.17613 | 48.25613 | 6580 ft | 266 kts | 324° |
| 2026-05-04 18:01 | 29.19132 | 48.24402 | 6218 ft | 265 kts | 324° |
| 2026-05-04 18:01 | 29.20636 | 48.23188 | 5823 ft | 264 kts | 324° |
| 2026-05-04 18:02 | 29.23629 | 48.20760 | 4986 ft | 264 kts | 324° |
| 2026-05-04 18:02 | 29.25111 | 48.19552 | 4582 ft | 264 kts | 324° |
| 2026-05-04 18:02 | 29.26600 | 48.18321 | 4162 ft | 265 kts | 324° |
| 2026-05-04 18:02 | 29.28095 | 48.17075 | 3735 ft | 266 kts | 324° |
| 2026-05-04 18:03 | 29.29586 | 48.15819 | 3328 ft | 267 kts | 324° |
| 2026-05-04 18:03 | 29.31081 | 48.14564 | 3047 ft | 265 kts | 323° |
| 2026-05-04 18:03 | 29.32571 | 48.13319 | 3006 ft | 267 kts | 324° |
| 2026-05-04 18:03 | 29.34069 | 48.12063 | 3007 ft | 268 kts | 323° |
| 2026-05-04 18:04 | 29.35593 | 48.10794 | 3007 ft | 269 kts | 324° |
| 2026-05-04 18:04 | 29.37110 | 48.09538 | 3006 ft | 269 kts | 324° |
| 2026-05-04 18:04 | 29.40055 | 48.07103 | 3002 ft | 245 kts | 324° |
| 2026-05-04 18:05 | 29.41394 | 48.05989 | 3005 ft | 236 kts | 324° |
| 2026-05-04 18:05 | 29.42711 | 48.04894 | 3008 ft | 235 kts | 324° |
| 2026-05-04 18:05 | 29.44043 | 48.03792 | 3007 ft | 235 kts | 324° |
| 2026-05-04 18:05 | 29.45332 | 48.02635 | 3007 ft | 235 kts | 316° |
| 2026-05-04 18:06 | 29.46743 | 47.99485 | 2561 ft | 226 kts | 260° |
| 2026-05-04 18:06 | 29.46323 | 47.97784 | 2506 ft | 226 kts | 246° |
| 2026-05-04 18:06 | 29.45722 | 47.96117 | 2496 ft | 227 kts | 244° |
| 2026-05-04 18:07 | 29.45084 | 47.94425 | 2509 ft | 228 kts | 244° |
| 2026-05-04 18:07 | 29.44461 | 47.92783 | 2508 ft | 229 kts | 244° |
| 2026-05-04 18:07 | 29.43823 | 47.91104 | 2505 ft | 228 kts | 244° |
| 2026-05-04 18:07 | 29.43189 | 47.89432 | 2503 ft | 228 kts | 244° |
| 2026-05-04 18:08 | 29.42375 | 47.87911 | 2502 ft | 223 kts | 219° |
| 2026-05-04 18:08 | 29.41041 | 47.87183 | 2497 ft | 210 kts | 180° |
| 2026-05-04 18:08 | 29.39741 | 47.87636 | 2529 ft | 192 kts | 146° |
| 2026-05-04 18:08 | 29.38601 | 47.88410 | 2513 ft | 186 kts | 154° |
| 2026-05-04 18:09 | 29.36425 | 47.89564 | 2492 ft | 167 kts | 154° |
| 2026-05-04 18:09 | 29.34348 | 47.90670 | 2209 ft | 162 kts | 154° |
| 2026-05-04 18:10 | 29.33322 | 47.91216 | 2011 ft | 162 kts | 153° |
| 2026-05-04 18:10 | 29.32300 | 47.91761 | 1818 ft | 161 kts | 153° |
| 2026-05-04 18:10 | 29.31312 | 47.92286 | 1636 ft | 151 kts | 153° |
| 2026-05-04 18:10 | 29.30392 | 47.92775 | 1434 ft | 142 kts | 152° |
| 2026-05-04 18:11 | 29.29515 | 47.93243 | 1268 ft | 138 kts | 152° |
| 2026-05-04 18:11 | 29.28647 | 47.93705 | 1090 ft | 136 kts | 153° |
| 2026-05-04 18:11 | 29.27804 | 47.94154 | 945 ft | 136 kts | 153° |
| 2026-05-04 18:11 | 29.27030 | 47.94566 | 802 ft | 136 kts | 154° |
| 2026-05-04 18:12 | 29.26163 | 47.94998 | 633 ft | 135 kts | 154° |
| 2026-05-04 18:12 | 29.25326 | 47.95471 | 472 ft | 135 kts | 154° |
| 2026-05-04 18:12 | 29.24485 | 47.95928 | 259 ft | 134 kts | 154° |
| 2026-05-04 18:12 | 29.23680 | 47.96340 | 146 ft | 121 kts | 154° |
| 2026-05-04 18:13 | 29.23091 | 47.96663 | 155 ft | 68 kts | 155° |
| 2026-05-04 18:13 | 29.22882 | 47.96775 | 157 ft | 32 kts | 154° |
| 2026-05-04 18:13 | 29.22448 | 47.97010 | 161 ft | 28 kts | 156° |
| 2026-05-04 18:14 | 29.22272 | 47.97098 | 164 ft | 27 kts | 155° |
| 2026-05-04 18:14 | 29.22156 | 47.97162 | 165 ft | 27 kts | 154° |
| 2026-05-04 18:14 | 29.22000 | 47.97273 | 167 ft | 27 kts | 132° |
| 2026-05-04 18:15 | 29.21943 | 47.97395 | 168 ft | 0 kts | 114° |
| 2026-05-04 18:15 | 29.21942 | 47.97397 | 168 ft | 2 kts | 114° |
| 2026-05-04 18:15 | 29.21932 | 47.97466 | 169 ft | 8 kts | 79° |
| 2026-05-04 18:16 | 29.21960 | 47.97490 | 169 ft | 6 kts | 351° |
| 2026-05-04 18:16 | 29.22004 | 47.97491 | 169 ft | 7 kts | 350° |
| 2026-05-04 18:16 | 29.22058 | 47.97461 | 168 ft | 10 kts | 333° |
| 2026-05-04 18:17 | 29.22206 | 47.97382 | 167 ft | 13 kts | 334° |
| 2026-05-04 18:17 | 29.22304 | 47.97328 | 166 ft | 19 kts | 334° |
| 2026-05-04 18:17 | 29.22526 | 47.97211 | 163 ft | 12 kts | 335° |
| 2026-05-04 18:18 | 29.22605 | 47.97169 | 162 ft | 15 kts | 335° |
| 2026-05-04 18:18 | 29.22718 | 47.97108 | 160 ft | 19 kts | 335° |
| 2026-05-04 18:18 | 29.22799 | 47.97066 | 159 ft | 15 kts | 335° |
| 2026-05-04 18:18 | 29.22847 | 47.97040 | 159 ft | 6 kts | 335° |
| 2026-05-04 18:19 | 29.22965 | 47.96976 | 157 ft | 13 kts | 334° |
| 2026-05-04 18:19 | 29.23049 | 47.96932 | 156 ft | 12 kts | 338° |
| 2026-05-04 18:19 | 29.23146 | 47.96882 | 155 ft | 18 kts | 336° |
| 2026-05-04 18:20 | 29.23251 | 47.96828 | 154 ft | 16 kts | 335° |
| 2026-05-04 18:20 | 29.23330 | 47.96784 | 153 ft | 11 kts | 334° |
| 2026-05-04 18:20 | 29.23394 | 47.96806 | 152 ft | 12 kts | 76° |
| 2026-05-04 18:20 | 29.23439 | 47.96902 | 153 ft | 16 kts | 66° |
| 2026-05-04 18:21 | 29.23492 | 47.97028 | 154 ft | 19 kts | 64° |
| 2026-05-04 18:21 | 29.23543 | 47.97162 | 156 ft | 14 kts | 68° |
| 2026-05-04 18:21 | 29.23580 | 47.97258 | 158 ft | 13 kts | 66° |
| 2026-05-04 18:21 | 29.23606 | 47.97325 | 159 ft | 8 kts | 66° |
| 2026-05-04 18:22 | 29.23616 | 47.97350 | 159 ft | 5 kts | 66° |
| 2026-05-04 18:22 | 29.23631 | 47.97390 | 161 ft | 4 kts | 68° |
| 2026-05-04 18:22 | 29.23647 | 47.97430 | 161 ft | 7 kts | 61° |
| 2026-05-04 18:22 | 29.23683 | 47.97457 | 161 ft | 2 kts | 328° |
| 2026-05-04 18:23 | 29.23689 | 47.97455 | 161 ft | 2 kts | 343° |
| 2026-05-04 18:23 | 29.23701 | 47.97453 | 161 ft | 3 kts | 348° |
| 2026-05-04 18:23 | 29.23723 | 47.97448 | 161 ft | 5 kts | 349° |
| 2026-05-04 18:23 | 29.23736 | 47.97444 | 161 ft | 3 kts | 344° |
| 2026-05-04 18:24 | 29.23768 | 47.97413 | 161 ft | 6 kts | 282° |
| 2026-05-04 18:24 | 29.23773 | 47.97353 | 159 ft | 3 kts | 263° |
| 2026-05-04 18:24 | 29.23772 | 47.97332 | 159 ft | 4 kts | 272° |
| 2026-05-04 18:24 | 29.23772 | 47.97327 | 159 ft | 1 kts | 271° |
| 2026-05-04 18:25 | 29.23773 | 47.97316 | 159 ft | 2 kts | 272° |
| 2026-05-04 18:25 | 29.23777 | 47.97302 | 158 ft | 2 kts | 291° |
| 2026-05-04 18:25 | 29.23781 | 47.97296 | 158 ft | 0 kts | 306° |
| 2026-05-04 18:25 | 29.23788 | 47.97290 | 158 ft | 1 kts | 322° |
| 2026-05-04 18:26 | 29.23791 | 47.97287 | 158 ft | 1 kts | 324° |
| 2026-05-04 18:26 | 29.23792 | 47.97286 | 158 ft | 0 kts | 324° |